KLM682 CYVR-EHAM
Flight info
| Callsign | KLM682 |
|---|---|
| Flight time | N/A |
| Altitude | 37000 |
| Route | DCT JANEK DCT VIDRI DCT WASEN DCT 53N110W 55N100W 5630N09000W 5730N08000W 5830N07000W DCT FASSA DCT SINGA/M085F370 DCT SAVRY DCT 59N050W/M085F390 58N040W 5630N03000W 55N020W DCT RESNO/N0484F390 DCT NETKI DCT NIBOG DCT BELOX L603 LAMSO LAMSO2A |
| Aircraft | B78X/H-SDE1E2E3FGHIJ2J3J4J5M1RWXY/LB1D1 |
Departure
| Time | 2026-05-06 09:09 |
|---|---|
| Airport | Vancouver International Airport (CYVR) |
Arrival
| Time | N/A |
|---|---|
| Airport | Amsterdam Airport Schiphol (EHAM) |
| Time | Latitude | Longitude | Altitude | Speed | Heading |
|---|---|---|---|---|---|
| 2026-05-06 08:35 | 49.19963 | -123.18270 | 29 ft | 0 kts | 189° |
| 2026-05-06 08:58 | 49.19983 | -123.18265 | 29 ft | 4 kts | 189° |
| 2026-05-06 08:58 | 49.20007 | -123.18260 | 29 ft | 4 kts | 202° |
| 2026-05-06 08:58 | 49.20016 | -123.18257 | 29 ft | 4 kts | 256° |
| 2026-05-06 08:59 | 49.20018 | -123.18229 | 29 ft | 2 kts | 279° |
| 2026-05-06 08:59 | 49.20014 | -123.18191 | 27 ft | 3 kts | 279° |
| 2026-05-06 08:59 | 49.20013 | -123.18184 | 27 ft | 0 kts | 279° |
| 2026-05-06 09:01 | 49.20013 | -123.18187 | 27 ft | 2 kts | 279° |
| 2026-05-06 09:02 | 49.20017 | -123.18217 | 30 ft | 4 kts | 279° |
| 2026-05-06 09:02 | 49.20024 | -123.18279 | 28 ft | 8 kts | 279° |
| 2026-05-06 09:02 | 49.20036 | -123.18386 | 28 ft | 12 kts | 280° |
| 2026-05-06 09:02 | 49.20013 | -123.18506 | 30 ft | 13 kts | 219° |
| 2026-05-06 09:03 | 49.19916 | -123.18549 | 30 ft | 16 kts | 191° |
| 2026-05-06 09:03 | 49.19798 | -123.18581 | 30 ft | 15 kts | 193° |
| 2026-05-06 09:03 | 49.19700 | -123.18662 | 30 ft | 18 kts | 203° |
| 2026-05-06 09:03 | 49.19574 | -123.18708 | 30 ft | 20 kts | 191° |
| 2026-05-06 09:04 | 49.19440 | -123.18744 | 30 ft | 17 kts | 192° |
| 2026-05-06 09:04 | 49.19377 | -123.18884 | 30 ft | 17 kts | 257° |
| 2026-05-06 09:04 | 49.19353 | -123.19074 | 30 ft | 19 kts | 259° |
| 2026-05-06 09:04 | 49.19326 | -123.19286 | 30 ft | 21 kts | 259° |
| 2026-05-06 09:05 | 49.19298 | -123.19517 | 31 ft | 23 kts | 259° |
| 2026-05-06 09:05 | 49.19267 | -123.19765 | 31 ft | 25 kts | 259° |
| 2026-05-06 09:05 | 49.19235 | -123.20027 | 31 ft | 26 kts | 259° |
| 2026-05-06 09:05 | 49.19201 | -123.20297 | 31 ft | 25 kts | 259° |
| 2026-05-06 09:06 | 49.19183 | -123.20513 | 31 ft | 16 kts | 273° |
| 2026-05-06 09:06 | 49.19199 | -123.20692 | 31 ft | 16 kts | 276° |
| 2026-05-06 09:06 | 49.19159 | -123.20828 | 31 ft | 12 kts | 209° |
| 2026-05-06 09:06 | 49.19077 | -123.20847 | 31 ft | 13 kts | 184° |
| 2026-05-06 09:07 | 49.19020 | -123.20798 | 31 ft | 8 kts | 121° |
| 2026-05-06 09:07 | 49.19004 | -123.20720 | 31 ft | 5 kts | 101° |
| 2026-05-06 09:07 | 49.19004 | -123.20713 | 31 ft | 0 kts | 100° |
| 2026-05-06 09:08 | 49.19003 | -123.20706 | 31 ft | 5 kts | 100° |
| 2026-05-06 09:08 | 49.18974 | -123.20462 | 31 ft | 48 kts | 99° |
| 2026-05-06 09:08 | 49.18882 | -123.19663 | 31 ft | 104 kts | 100° |
| 2026-05-06 09:08 | 49.18729 | -123.18321 | 31 ft | 151 kts | 100° |
| 2026-05-06 09:09 | 49.18513 | -123.16572 | 236 ft | 176 kts | 105° |
| 2026-05-06 09:09 | 49.18281 | -123.14658 | 809 ft | 191 kts | 100° |
| 2026-05-06 09:09 | 49.18052 | -123.12606 | 1529 ft | 199 kts | 100° |
| 2026-05-06 09:09 | 49.17847 | -123.10454 | 2047 ft | 217 kts | 99° |
| 2026-05-06 09:10 | 49.17637 | -123.08081 | 2725 ft | 230 kts | 99° |
| 2026-05-06 09:10 | 49.17427 | -123.05549 | 3302 ft | 253 kts | 98° |
| 2026-05-06 09:10 | 49.17208 | -123.02789 | 4184 ft | 262 kts | 97° |
| 2026-05-06 09:10 | 49.16971 | -122.99911 | 4966 ft | 281 kts | 97° |
| 2026-05-06 09:11 | 49.16702 | -122.96955 | 6046 ft | 284 kts | 97° |
| 2026-05-06 09:11 | 49.16554 | -122.93918 | 6952 ft | 290 kts | 77° |
| 2026-05-06 09:11 | 49.17351 | -122.91140 | 7914 ft | 288 kts | 53° |
| 2026-05-06 09:11 | 49.18585 | -122.88705 | 8887 ft | 292 kts | 46° |
| 2026-05-06 09:12 | 49.19998 | -122.86450 | 9869 ft | 296 kts | 42° |
| 2026-05-06 09:12 | 49.21532 | -122.84278 | 10604 ft | 308 kts | 37° |
| 2026-05-06 09:12 | 49.23250 | -122.82191 | 11131 ft | 327 kts | 36° |
| 2026-05-06 09:12 | 49.25073 | -122.79935 | 11624 ft | 348 kts | 38° |
| 2026-05-06 09:13 | 49.26958 | -122.77452 | 12114 ft | 368 kts | 39° |
| 2026-05-06 09:13 | 49.28947 | -122.74817 | 12645 ft | 384 kts | 38° |
| 2026-05-06 09:13 | 49.30985 | -122.72176 | 13461 ft | 392 kts | 38° |
| 2026-05-06 09:13 | 49.33085 | -122.69466 | 14272 ft | 398 kts | 38° |
| 2026-05-06 09:14 | 49.35207 | -122.66700 | 15052 ft | 403 kts | 38° |
| 2026-05-06 09:14 | 49.37358 | -122.63885 | 15822 ft | 409 kts | 38° |
| 2026-05-06 09:14 | 49.39534 | -122.61041 | 16593 ft | 414 kts | 37° |
| 2026-05-06 09:14 | 49.41751 | -122.58147 | 17350 ft | 419 kts | 37° |
| 2026-05-06 09:15 | 49.43984 | -122.55227 | 18106 ft | 425 kts | 37° |
| 2026-05-06 09:15 | 49.46247 | -122.52259 | 18791 ft | 430 kts | 37° |
| 2026-05-06 09:15 | 49.48537 | -122.49251 | 19455 ft | 434 kts | 37° |
| 2026-05-06 09:15 | 49.50785 | -122.46298 | 20119 ft | 438 kts | 37° |
| 2026-05-06 09:16 | 49.53082 | -122.43208 | 20480 ft | 439 kts | 39° |
| 2026-05-06 09:16 | 49.55406 | -122.40115 | 20814 ft | 443 kts | 37° |
| 2026-05-06 09:16 | 49.57766 | -122.37112 | 21430 ft | 447 kts | 36° |
| 2026-05-06 09:16 | 49.60179 | -122.33970 | 22060 ft | 451 kts | 37° |
| 2026-05-06 09:17 | 49.62523 | -122.30819 | 22676 ft | 454 kts | 37° |
| 2026-05-06 09:17 | 49.64921 | -122.27606 | 23277 ft | 458 kts | 37° |
| 2026-05-06 09:17 | 49.67356 | -122.24401 | 23843 ft | 461 kts | 36° |
| 2026-05-06 09:17 | 49.69805 | -122.21172 | 24345 ft | 465 kts | 37° |
| 2026-05-06 09:18 | 49.72264 | -122.17893 | 24836 ft | 468 kts | 37° |
| 2026-05-06 09:18 | 49.74735 | -122.14586 | 25324 ft | 471 kts | 37° |
| 2026-05-06 09:18 | 49.77226 | -122.11266 | 25802 ft | 474 kts | 37° |
| 2026-05-06 09:18 | 49.79734 | -122.07926 | 26274 ft | 477 kts | 37° |
| 2026-05-06 09:19 | 49.82252 | -122.04559 | 26740 ft | 480 kts | 37° |
| 2026-05-06 09:19 | 49.84785 | -122.01161 | 27246 ft | 481 kts | 37° |